AUA14P LOWL-LOWS
Flight info
| Callsign | AUA14P |
|---|---|
| Flight time | 0h 20m |
| Altitude | 12000 |
| Route | LIDSI DCT MATIG |
| Aircraft | A320/M-SDE3FGHIRWY/LB1 |
Departure
| Time | 2026-05-08 20:13 |
|---|---|
| Airport | Linz-Hörsching Airport (LOWL) |
Arrival
| Time | 2026-05-08 20:33 |
|---|---|
| Airport | Salzburg Airport (LOWS) |
| Time | Latitude | Longitude | Altitude | Speed | Heading |
|---|---|---|---|---|---|
| 2026-05-08 20:01 | 48.23800 | 14.19152 | 976 ft | 0 kts | 87° |
| 2026-05-08 20:08 | 48.23796 | 14.19173 | 987 ft | 4 kts | 124° |
| 2026-05-08 20:08 | 48.23756 | 14.19147 | 981 ft | 11 kts | 248° |
| 2026-05-08 20:08 | 48.23747 | 14.18988 | 977 ft | 19 kts | 266° |
| 2026-05-08 20:09 | 48.23741 | 14.18782 | 985 ft | 20 kts | 267° |
| 2026-05-08 20:09 | 48.23734 | 14.18562 | 979 ft | 22 kts | 268° |
| 2026-05-08 20:09 | 48.23726 | 14.18332 | 980 ft | 23 kts | 266° |
| 2026-05-08 20:09 | 48.23718 | 14.18107 | 980 ft | 18 kts | 264° |
| 2026-05-08 20:10 | 48.23629 | 14.17999 | 983 ft | 18 kts | 195° |
| 2026-05-08 20:10 | 48.23506 | 14.17946 | 987 ft | 18 kts | 197° |
| 2026-05-08 20:10 | 48.23388 | 14.17896 | 981 ft | 17 kts | 195° |
| 2026-05-08 20:10 | 48.23297 | 14.17843 | 992 ft | 13 kts | 232° |
| 2026-05-08 20:11 | 48.23282 | 14.17647 | 984 ft | 26 kts | 266° |
| 2026-05-08 20:11 | 48.23272 | 14.17358 | 985 ft | 28 kts | 267° |
| 2026-05-08 20:11 | 48.23262 | 14.17055 | 984 ft | 30 kts | 266° |
| 2026-05-08 20:11 | 48.23270 | 14.16808 | 988 ft | 19 kts | 311° |
| 2026-05-08 20:12 | 48.23270 | 14.16748 | 988 ft | 5 kts | 174° |
| 2026-05-08 20:12 | 48.23253 | 14.16785 | 991 ft | 4 kts | 104° |
| 2026-05-08 20:12 | 48.23259 | 14.16997 | 985 ft | 52 kts | 86° |
| 2026-05-08 20:12 | 48.23291 | 14.17894 | 989 ft | 118 kts | 88° |
| 2026-05-08 20:13 | 48.23347 | 14.19406 | 1022 ft | 164 kts | 86° |
| 2026-05-08 20:13 | 48.23389 | 14.21082 | 1739 ft | 161 kts | 87° |
| 2026-05-08 20:13 | 48.23410 | 14.22764 | 2355 ft | 169 kts | 87° |
| 2026-05-08 20:13 | 48.23480 | 14.24623 | 2733 ft | 188 kts | 78° |
| 2026-05-08 20:14 | 48.24053 | 14.26467 | 3091 ft | 208 kts | 49° |
| 2026-05-08 20:14 | 48.25356 | 14.27662 | 3315 ft | 240 kts | 13° |
| 2026-05-08 20:14 | 48.27087 | 14.27449 | 3751 ft | 263 kts | 336° |
| 2026-05-08 20:14 | 48.28499 | 14.25698 | 4553 ft | 270 kts | 301° |
| 2026-05-08 20:15 | 48.29171 | 14.23092 | 5563 ft | 269 kts | 282° |
| 2026-05-08 20:15 | 48.29495 | 14.20323 | 6535 ft | 270 kts | 277° |
| 2026-05-08 20:15 | 48.29763 | 14.17510 | 7426 ft | 273 kts | 277° |
| 2026-05-08 20:15 | 48.29837 | 14.14641 | 8312 ft | 276 kts | 264° |
| 2026-05-08 20:16 | 48.29536 | 14.11794 | 9274 ft | 277 kts | 261° |
| 2026-05-08 20:16 | 48.29312 | 14.08923 | 10225 ft | 277 kts | 266° |
| 2026-05-08 20:16 | 48.29181 | 14.05996 | 10809 ft | 290 kts | 262° |
| 2026-05-08 20:16 | 48.28602 | 14.02977 | 11111 ft | 312 kts | 246° |
| 2026-05-08 20:17 | 48.27461 | 14.00073 | 11377 ft | 335 kts | 234° |
| 2026-05-08 20:17 | 48.25983 | 13.97244 | 11765 ft | 350 kts | 233° |
| 2026-05-08 20:17 | 48.24491 | 13.94316 | 11997 ft | 355 kts | 234° |
| 2026-05-08 20:17 | 48.23019 | 13.91352 | 12006 ft | 355 kts | 234° |
| 2026-05-08 20:18 | 48.21556 | 13.88368 | 12011 ft | 355 kts | 235° |
| 2026-05-08 20:18 | 48.20140 | 13.85343 | 12025 ft | 355 kts | 236° |
| 2026-05-08 20:18 | 48.18752 | 13.82249 | 12070 ft | 366 kts | 237° |
| 2026-05-08 20:18 | 48.17297 | 13.78977 | 12140 ft | 386 kts | 237° |
| 2026-05-08 20:19 | 48.15789 | 13.75609 | 12066 ft | 390 kts | 237° |
| 2026-05-08 20:19 | 48.14269 | 13.72239 | 12025 ft | 391 kts | 236° |
| 2026-05-08 20:19 | 48.12737 | 13.68878 | 12000 ft | 391 kts | 236° |
| 2026-05-08 20:19 | 48.11196 | 13.65538 | 11990 ft | 391 kts | 236° |
| 2026-05-08 20:20 | 48.09638 | 13.62199 | 11983 ft | 391 kts | 236° |
| 2026-05-08 20:20 | 48.08071 | 13.58881 | 11988 ft | 391 kts | 235° |
| 2026-05-08 20:20 | 48.06502 | 13.55594 | 11992 ft | 380 kts | 235° |
| 2026-05-08 20:20 | 48.04995 | 13.52481 | 11974 ft | 361 kts | 234° |
| 2026-05-08 20:21 | 48.03586 | 13.49439 | 11950 ft | 355 kts | 242° |
| 2026-05-08 20:21 | 48.02879 | 13.45969 | 11513 ft | 348 kts | 266° |
| 2026-05-08 20:21 | 48.03073 | 13.42425 | 11218 ft | 338 kts | 279° |
| 2026-05-08 20:21 | 48.03491 | 13.39029 | 10993 ft | 326 kts | 279° |
| 2026-05-08 20:22 | 48.03888 | 13.35754 | 10756 ft | 316 kts | 279° |
| 2026-05-08 20:22 | 48.04239 | 13.32564 | 10559 ft | 306 kts | 274° |
| 2026-05-08 20:22 | 48.04190 | 13.29443 | 10485 ft | 295 kts | 263° |
| 2026-05-08 20:22 | 48.03999 | 13.27454 | 10378 ft | 289 kts | 260° |
| 2026-05-08 20:23 | 48.03510 | 13.23616 | 10148 ft | 279 kts | 259° |
| 2026-05-08 20:23 | 48.03155 | 13.20778 | 9906 ft | 277 kts | 260° |
| 2026-05-08 20:23 | 48.02829 | 13.17923 | 9309 ft | 282 kts | 261° |
| 2026-05-08 20:23 | 48.02526 | 13.14997 | 8686 ft | 284 kts | 262° |
| 2026-05-08 20:24 | 48.02261 | 13.12099 | 8124 ft | 276 kts | 262° |
| 2026-05-08 20:24 | 48.02020 | 13.09340 | 7537 ft | 259 kts | 262° |
| 2026-05-08 20:24 | 48.01795 | 13.06741 | 6917 ft | 248 kts | 262° |
| 2026-05-08 20:24 | 48.01578 | 13.04224 | 6409 ft | 241 kts | 262° |
| 2026-05-08 20:25 | 48.01362 | 13.01745 | 6029 ft | 242 kts | 262° |
| 2026-05-08 20:25 | 48.01139 | 12.99226 | 5520 ft | 248 kts | 262° |
| 2026-05-08 20:25 | 48.00913 | 12.96649 | 5071 ft | 251 kts | 262° |
| 2026-05-08 20:25 | 48.00679 | 12.94119 | 4733 ft | 237 kts | 256° |
| 2026-05-08 20:26 | 48.00021 | 12.92060 | 4631 ft | 206 kts | 230° |
| 2026-05-08 20:26 | 47.99013 | 12.90695 | 4635 ft | 190 kts | 211° |
| 2026-05-08 20:26 | 47.97820 | 12.89921 | 4488 ft | 185 kts | 193° |
| 2026-05-08 20:26 | 47.96556 | 12.89765 | 4360 ft | 182 kts | 175° |
| 2026-05-08 20:27 | 47.95351 | 12.90210 | 4240 ft | 181 kts | 157° |
| 2026-05-08 20:27 | 47.94199 | 12.90963 | 4132 ft | 181 kts | 155° |
| 2026-05-08 20:27 | 47.93044 | 12.91712 | 4036 ft | 180 kts | 157° |
| 2026-05-08 20:27 | 47.91892 | 12.92453 | 3965 ft | 181 kts | 155° |
| 2026-05-08 20:28 | 47.90732 | 12.93184 | 3755 ft | 178 kts | 156° |
| 2026-05-08 20:28 | 47.89641 | 12.93866 | 3514 ft | 165 kts | 156° |
| 2026-05-08 20:28 | 47.88614 | 12.94503 | 3234 ft | 154 kts | 155° |
| 2026-05-08 20:28 | 47.87647 | 12.95118 | 3009 ft | 149 kts | 155° |
| 2026-05-08 20:29 | 47.86708 | 12.95734 | 2835 ft | 147 kts | 155° |
| 2026-05-08 20:29 | 47.85771 | 12.96329 | 2651 ft | 146 kts | 156° |
| 2026-05-08 20:29 | 47.84832 | 12.96919 | 2443 ft | 146 kts | 155° |
| 2026-05-08 20:29 | 47.83901 | 12.97494 | 2163 ft | 143 kts | 156° |
| 2026-05-08 20:30 | 47.83011 | 12.98058 | 1950 ft | 135 kts | 155° |
| 2026-05-08 20:30 | 47.82171 | 12.98613 | 1700 ft | 134 kts | 156° |
| 2026-05-08 20:30 | 47.81302 | 12.99533 | 1852 ft | 166 kts | 134° |
| 2026-05-08 20:30 | 47.80555 | 13.00747 | 1825 ft | 152 kts | 129° |
| 2026-05-08 20:31 | 47.79880 | 13.01917 | 1754 ft | 147 kts | 128° |
| 2026-05-08 20:31 | 47.79222 | 13.03045 | 1784 ft | 143 kts | 128° |
| 2026-05-08 20:31 | 47.78566 | 13.04170 | 1796 ft | 144 kts | 128° |
| 2026-05-08 20:31 | 47.77816 | 13.05154 | 1796 ft | 146 kts | 157° |
| 2026-05-08 20:32 | 47.76832 | 13.05052 | 1805 ft | 148 kts | 214° |
| 2026-05-08 20:32 | 47.76361 | 13.03774 | 1809 ft | 146 kts | 275° |
| 2026-05-08 20:32 | 47.76763 | 13.02454 | 1842 ft | 142 kts | 312° |
| 2026-05-08 20:32 | 47.77524 | 13.01548 | 1667 ft | 139 kts | 335° |
| 2026-05-08 20:33 | 47.78408 | 13.00972 | 1459 ft | 138 kts | 339° |
| 2026-05-08 20:33 | 47.79239 | 13.00454 | 1422 ft | 115 kts | 337° |
| 2026-05-08 20:33 | 47.79721 | 13.00152 | 1422 ft | 46 kts | 338° |
| 2026-05-08 20:33 | 47.80001 | 12.99973 | 1424 ft | 42 kts | 337° |
| 2026-05-08 20:34 | 47.80227 | 12.99833 | 1420 ft | 28 kts | 335° |
| 2026-05-08 20:34 | 47.80277 | 12.99708 | 1423 ft | 11 kts | 258° |
| 2026-05-08 20:34 | 47.80203 | 12.99592 | 1423 ft | 8 kts | 181° |
| 2026-05-08 20:35 | 47.80142 | 12.99618 | 1422 ft | 12 kts | 156° |
| 2026-05-08 20:35 | 47.80044 | 12.99680 | 1423 ft | 17 kts | 156° |
| 2026-05-08 20:35 | 47.79934 | 12.99750 | 1421 ft | 18 kts | 157° |
| 2026-05-08 20:35 | 47.79817 | 12.99825 | 1422 ft | 18 kts | 158° |
| 2026-05-08 20:36 | 47.79694 | 12.99901 | 1422 ft | 20 kts | 157° |
| 2026-05-08 20:36 | 47.79562 | 12.99984 | 1423 ft | 21 kts | 157° |
| 2026-05-08 20:36 | 47.79421 | 13.00072 | 1422 ft | 22 kts | 157° |
| 2026-05-08 20:36 | 47.79349 | 13.00039 | 1422 ft | 12 kts | 244° |
| 2026-05-08 20:37 | 47.79310 | 12.99948 | 1422 ft | 10 kts | 208° |
| 2026-05-08 20:37 | 47.79251 | 12.99966 | 1422 ft | 8 kts | 157° |
| 2026-05-08 20:37 | 47.79203 | 12.99999 | 1422 ft | 7 kts | 149° |
| 2026-05-08 20:37 | 47.79186 | 13.00056 | 1422 ft | 5 kts | 98° |
| 2026-05-08 20:38 | 47.79179 | 13.00104 | 1422 ft | 4 kts | 105° |
| 2026-05-08 20:38 | 47.79177 | 13.00119 | 1422 ft | 0 kts | 102° |